createdAt,value
2018-12-05T00:00:14.537Z,5.27
2018-12-05T00:02:42.739Z,5.70
2018-12-05T00:05:11.045Z,5.53
2018-12-05T00:07:39.276Z,7.00
2018-12-05T00:10:07.615Z,8.50
2018-12-05T00:12:36.770Z,6.90
2018-12-05T00:15:05.100Z,7.10
2018-12-05T00:17:33.641Z,5.93
2018-12-05T00:20:02.117Z,5.53
2018-12-05T00:22:30.327Z,4.90
2018-12-05T00:24:58.573Z,4.80
2018-12-05T00:27:26.839Z,5.60
2018-12-05T00:29:55.041Z,5.83
2018-12-05T00:32:23.287Z,6.10
2018-12-05T00:34:51.481Z,5.87
2018-12-05T00:37:19.780Z,6.10
2018-12-05T00:39:48.177Z,5.17
2018-12-05T00:42:16.595Z,5.77
2018-12-05T00:44:45.390Z,4.87
2018-12-05T00:47:13.351Z,5.20
2018-12-05T00:49:41.293Z,4.73
2018-12-05T00:52:09.254Z,4.30
2018-12-05T00:54:37.498Z,4.70
2018-12-05T00:57:05.749Z,3.90
2018-12-05T00:59:34.013Z,4.30
2018-12-05T01:02:02.548Z,4.67
2018-12-05T01:04:30.765Z,3.90
2018-12-05T01:06:59.259Z,4.33
2018-12-05T01:09:27.598Z,4.00
2018-12-05T01:11:55.828Z,4.87
2018-12-05T01:14:24.117Z,3.90
2018-12-05T01:16:52.350Z,3.40
2018-12-05T01:19:20.647Z,3.97
2018-12-05T01:21:48.861Z,4.33
2018-12-05T01:24:17.057Z,3.90
2018-12-05T01:26:45.266Z,4.47
2018-12-05T01:29:13.549Z,4.50
2018-12-05T01:31:41.763Z,4.70
2018-12-05T01:34:09.966Z,4.83
2018-12-05T01:36:38.175Z,5.40
2018-12-05T01:39:07.834Z,4.70
2018-12-05T01:41:36.083Z,4.47
2018-12-05T01:44:04.280Z,3.90
2018-12-05T01:46:32.608Z,4.67
2018-12-05T01:49:00.842Z,4.70
2018-12-05T01:51:29.049Z,5.10
2018-12-05T01:53:57.281Z,5.30
2018-12-05T01:56:25.482Z,5.40
2018-12-05T01:58:53.677Z,5.43
2018-12-05T02:01:22.012Z,5.93
2018-12-05T02:03:50.208Z,6.90
2018-12-05T02:06:18.488Z,6.40
2018-12-05T02:08:46.757Z,5.67
2018-12-05T02:11:14.929Z,5.80
2018-12-05T02:13:43.180Z,5.67
2018-12-05T02:16:11.408Z,5.90
2018-12-05T02:18:39.552Z,5.60
2018-12-05T02:21:07.697Z,5.50
2018-12-05T02:23:35.977Z,5.70
2018-12-05T02:26:04.179Z,5.40
2018-12-05T02:28:32.358Z,4.97
2018-12-05T02:31:02.428Z,5.47
2018-12-05T02:33:30.577Z,5.50
2018-12-05T02:35:58.729Z,5.63
2018-12-05T02:38:26.921Z,5.53
2018-12-05T02:40:55.055Z,5.30
2018-12-05T02:43:23.200Z,5.10
2018-12-05T02:45:51.344Z,5.27
2018-12-05T02:48:19.388Z,5.30
2018-12-05T02:50:47.297Z,5.73
2018-12-05T02:53:15.474Z,7.20
2018-12-05T02:55:43.628Z,6.57
2018-12-05T02:58:11.779Z,7.30
2018-12-05T03:00:39.917Z,6.97
2018-12-05T03:03:08.072Z,7.40
2018-12-05T03:05:36.305Z,7.63
2018-12-05T03:08:04.460Z,7.90
2018-12-05T03:10:32.646Z,7.87
2018-12-05T03:13:00.830Z,7.70
2018-12-05T03:15:29.042Z,7.77
2018-12-05T03:17:57.224Z,7.30
2018-12-05T03:20:25.397Z,8.00
2018-12-05T03:22:53.615Z,7.40
2018-12-05T03:25:21.781Z,7.97
2018-12-05T03:27:50.051Z,7.37
2018-12-05T03:30:18.226Z,7.77
2018-12-05T03:32:46.408Z,9.20
2018-12-05T03:35:14.653Z,8.17
2018-12-05T03:37:42.878Z,7.20
2018-12-05T03:40:11.063Z,8.03
2018-12-05T03:42:39.262Z,8.67
2018-12-05T03:45:07.467Z,8.30
2018-12-05T03:47:35.646Z,8.53
2018-12-05T03:50:03.736Z,10.20
2018-12-05T03:52:38.264Z,9.00
2018-12-05T03:55:06.444Z,9.27
2018-12-05T03:57:34.402Z,9.27
2018-12-05T04:00:02.657Z,10.27
2018-12-05T04:02:30.871Z,11.67
2018-12-05T04:04:59.071Z,10.90
2018-12-05T04:07:27.262Z,11.20
2018-12-05T04:09:55.483Z,10.17
2018-12-05T04:12:23.650Z,11.30
2018-12-05T04:14:51.863Z,10.40
2018-12-05T04:17:20.083Z,10.97
2018-12-05T04:19:48.335Z,9.47
2018-12-05T04:22:16.546Z,9.63
2018-12-05T04:24:44.718Z,10.20
2018-12-05T04:27:12.902Z,9.63
2018-12-05T04:29:41.139Z,10.00
2018-12-05T04:32:09.418Z,9.30
2018-12-05T04:34:37.726Z,9.80
2018-12-05T04:37:05.996Z,9.80
2018-12-05T04:39:34.279Z,8.80
2018-12-05T04:42:02.505Z,11.00
2018-12-05T04:44:30.727Z,10.90
2018-12-05T04:46:58.926Z,9.40
2018-12-05T04:49:27.149Z,9.43
2018-12-05T04:51:55.356Z,8.40
2018-12-05T04:54:23.574Z,9.07
2018-12-05T04:56:51.530Z,9.67
2018-12-05T04:59:19.567Z,9.23
2018-12-05T05:01:47.842Z,8.40
2018-12-05T05:04:16.183Z,9.80
2018-12-05T05:06:44.497Z,9.70
2018-12-05T05:09:12.750Z,9.10
2018-12-05T05:11:41.039Z,9.83
2018-12-05T05:14:09.230Z,8.03
2018-12-05T05:16:37.454Z,8.27
2018-12-05T05:19:05.642Z,9.07
2018-12-05T05:21:33.808Z,8.20
2018-12-05T05:24:01.994Z,7.93
2018-12-05T05:26:30.391Z,8.30
2018-12-05T05:28:58.593Z,7.40
2018-12-05T05:31:26.757Z,7.20
2018-12-05T05:33:54.941Z,6.93
2018-12-05T05:36:23.111Z,6.27
2018-12-05T05:38:51.305Z,7.13
2018-12-05T05:41:19.506Z,6.43
2018-12-05T05:43:47.718Z,7.80
2018-12-05T05:46:15.971Z,6.80
2018-12-05T05:48:44.153Z,8.03
2018-12-05T05:51:12.386Z,6.70
2018-12-05T05:55:05.153Z,7.50
2018-12-05T05:57:33.362Z,7.47
2018-12-05T06:00:01.610Z,8.17
2018-12-05T06:02:29.789Z,7.63
2018-12-05T06:04:57.959Z,7.63
2018-12-05T06:07:26.222Z,7.90
2018-12-05T06:09:54.456Z,8.20
2018-12-05T06:12:22.760Z,9.77
2018-12-05T06:14:50.901Z,8.30
2018-12-05T06:17:19.113Z,8.33
2018-12-05T06:19:47.295Z,8.53
2018-12-05T06:22:15.446Z,9.87
2018-12-05T06:24:43.603Z,8.27
2018-12-05T06:27:11.766Z,8.07
2018-12-05T06:29:40.017Z,8.53
2018-12-05T06:32:08.240Z,8.97
2018-12-05T06:34:36.405Z,10.10
2018-12-05T06:37:04.548Z,9.57
2018-12-05T06:39:32.751Z,10.63
2018-12-05T06:42:00.909Z,8.40
2018-12-05T06:44:29.069Z,9.83
2018-12-05T06:46:57.283Z,9.43
2018-12-05T06:49:25.645Z,10.53
2018-12-05T06:51:53.843Z,9.80
2018-12-05T06:54:21.995Z,10.27
2018-12-05T06:56:50.177Z,9.90
2018-12-05T06:59:18.358Z,9.70
2018-12-05T07:01:46.583Z,8.87
2018-12-05T07:04:14.816Z,10.00
2018-12-05T07:06:42.974Z,9.00
2018-12-05T07:09:11.132Z,9.33
2018-12-05T07:11:39.285Z,9.80
2018-12-05T07:14:07.466Z,9.00
2018-12-05T07:16:35.707Z,9.40
2018-12-05T07:19:03.846Z,8.50
2018-12-05T07:21:32.007Z,11.30
2018-12-05T07:24:00.154Z,9.63
2018-12-05T07:26:28.322Z,8.83
2018-12-05T07:28:56.519Z,8.50
2018-12-05T07:31:24.678Z,11.57
2018-12-05T07:33:52.851Z,10.00
2018-12-05T07:36:21.012Z,10.37
2018-12-05T07:38:49.162Z,11.40
2018-12-05T07:41:17.351Z,11.23
2018-12-05T07:43:45.489Z,9.10
2018-12-05T07:46:13.668Z,8.70
2018-12-05T07:48:41.823Z,14.10
2018-12-05T07:51:10.035Z,9.73
2018-12-05T07:53:38.177Z,9.07
2018-12-05T07:56:11.905Z,9.67
2018-12-05T07:58:40.051Z,8.97
2018-12-05T08:01:08.202Z,11.10
2018-12-05T08:03:36.447Z,10.97
2018-12-05T08:06:04.659Z,10.47
2018-12-05T08:08:32.806Z,10.50
2018-12-05T08:11:00.966Z,13.63
2018-12-05T08:13:29.122Z,14.73
2018-12-05T08:15:57.269Z,13.53
2018-12-05T08:18:25.447Z,15.80
2018-12-05T08:20:53.630Z,15.50
2018-12-05T08:23:21.806Z,14.50
2018-12-05T08:25:50.125Z,13.67
2018-12-05T08:28:18.318Z,13.00
2018-12-05T08:30:46.521Z,11.17
2018-12-05T08:33:14.716Z,11.40
2018-12-05T08:35:43.094Z,14.93
2018-12-05T08:38:17.726Z,15.70
2018-12-05T08:40:45.890Z,12.13
2018-12-05T08:43:14.066Z,13.63
2018-12-05T08:45:42.228Z,12.83
2018-12-05T08:48:10.391Z,13.60
2018-12-05T08:50:38.654Z,13.43
2018-12-05T08:53:06.851Z,10.70
2018-12-05T08:55:35.014Z,11.63
2018-12-05T08:58:03.210Z,11.13
2018-12-05T09:00:31.398Z,12.33
2018-12-05T09:02:59.587Z,11.90
2018-12-05T09:05:27.779Z,11.80
2018-12-05T09:07:55.934Z,11.43
2018-12-05T09:10:24.193Z,11.37
2018-12-05T09:12:52.370Z,10.37
2018-12-05T09:15:20.588Z,11.70
2018-12-05T09:17:48.789Z,11.03
2018-12-05T09:20:16.962Z,9.90
2018-12-05T09:22:45.141Z,9.53
2018-12-05T09:25:13.398Z,9.00
2018-12-05T09:27:41.701Z,10.10
2018-12-05T09:30:09.876Z,11.50
2018-12-05T09:32:38.317Z,10.53
2018-12-05T09:35:06.594Z,11.17
2018-12-05T09:37:34.770Z,8.30
2018-12-05T09:40:03.152Z,8.57
2018-12-05T09:42:31.360Z,11.67
2018-12-05T09:44:59.296Z,12.23
2018-12-05T09:47:27.502Z,12.00
2018-12-05T09:49:55.690Z,11.70
2018-12-05T09:52:23.911Z,15.47
2018-12-05T09:54:52.096Z,10.77
2018-12-05T09:57:20.281Z,9.93
2018-12-05T09:59:48.453Z,9.47
2018-12-05T10:02:16.639Z,11.47
2018-12-05T10:04:44.835Z,10.47
2018-12-05T10:07:13.002Z,7.73
2018-12-05T10:09:41.215Z,8.10
2018-12-05T10:12:09.399Z,9.00
2018-12-05T10:14:37.589Z,16.50
2018-12-05T10:17:05.814Z,18.00
2018-12-05T10:19:40.788Z,12.50
2018-12-05T10:22:08.998Z,9.10
2018-12-05T10:24:37.378Z,8.00
2018-12-05T10:27:05.591Z,8.90
2018-12-05T10:29:33.833Z,7.73
2018-12-05T10:32:02.005Z,8.43
2018-12-05T10:34:30.185Z,7.87
2018-12-05T10:36:58.357Z,8.67
2018-12-05T10:39:26.526Z,8.10
2018-12-05T10:41:54.742Z,6.90
2018-12-05T10:44:22.914Z,8.40
2018-12-05T10:46:51.193Z,7.43
2018-12-05T10:49:19.436Z,7.80
2018-12-05T10:51:47.613Z,7.27
2018-12-05T10:54:15.794Z,7.20
2018-12-05T10:56:44.095Z,10.07
2018-12-05T10:59:12.321Z,11.30
2018-12-05T11:01:45.941Z,13.20
2018-12-05T11:04:20.742Z,12.40
2018-12-05T11:06:54.143Z,9.70
2018-12-05T11:09:27.904Z,9.53
2018-12-05T11:12:01.673Z,12.40
2018-12-05T11:14:35.371Z,13.37
2018-12-05T11:17:09.038Z,12.17
2018-12-05T11:19:49.274Z,12.47
2018-12-05T11:22:22.790Z,22.10
2018-12-05T11:24:55.243Z,12.40
2018-12-05T11:27:23.497Z,10.57
2018-12-05T11:29:51.693Z,9.90
2018-12-05T11:32:19.918Z,8.20
2018-12-05T11:34:48.185Z,9.90
2018-12-05T11:37:16.360Z,9.97
2018-12-05T11:39:44.538Z,9.07
2018-12-05T11:42:12.713Z,10.80
2018-12-05T11:44:40.905Z,8.60
2018-12-05T11:47:09.210Z,8.47
2018-12-05T11:49:37.377Z,9.70
2018-12-05T11:52:05.569Z,10.43
2018-12-05T11:54:33.601Z,9.60
2018-12-05T11:57:01.761Z,9.37
2018-12-05T11:59:30.002Z,8.27
2018-12-05T12:01:58.179Z,8.97
2018-12-05T12:04:26.399Z,8.20
2018-12-05T12:06:54.595Z,8.53
2018-12-05T12:09:22.782Z,8.13
2018-12-05T12:11:50.977Z,6.90
2018-12-05T12:14:19.157Z,7.40
2018-12-05T12:16:47.330Z,7.90
2018-12-05T12:19:15.517Z,7.73
2018-12-05T12:21:44.517Z,9.03
2018-12-05T12:24:12.718Z,7.77
2018-12-05T12:26:40.899Z,9.83
2018-12-05T12:29:09.118Z,8.87
2018-12-05T12:31:37.293Z,9.43
2018-12-05T12:34:05.497Z,7.10
2018-12-05T12:36:33.669Z,7.63
2018-12-05T12:39:01.855Z,7.47
2018-12-05T12:41:30.022Z,7.93
2018-12-05T12:43:58.375Z,6.30
2018-12-05T12:46:26.539Z,7.90
2018-12-05T12:48:54.801Z,8.70
2018-12-05T12:51:23.701Z,8.03
2018-12-05T12:53:51.833Z,7.27
2018-12-05T12:56:20.039Z,7.63
2018-12-05T12:58:48.219Z,6.70
2018-12-05T13:01:16.409Z,6.97
2018-12-05T13:03:44.693Z,7.73
2018-12-05T13:06:19.703Z,7.80
2018-12-05T13:08:47.887Z,7.17
2018-12-05T13:11:16.076Z,9.03
2018-12-05T13:13:44.339Z,7.93
2018-12-05T13:16:12.525Z,7.63
2018-12-05T13:18:40.709Z,8.73
2018-12-05T13:21:08.884Z,8.30
2018-12-05T13:23:37.140Z,8.77
2018-12-05T13:26:05.331Z,8.70
2018-12-05T13:28:33.501Z,7.50
2018-12-05T13:31:01.679Z,7.20
2018-12-05T13:33:29.849Z,7.87
2018-12-05T13:35:58.068Z,8.30
2018-12-05T13:38:26.249Z,8.13
2018-12-05T13:40:54.430Z,8.40
2018-12-05T13:43:22.658Z,7.60
2018-12-05T13:45:50.833Z,6.30
2018-12-05T13:48:19.026Z,7.50
2018-12-05T13:50:47.393Z,7.77
2018-12-05T13:53:15.581Z,6.07
2018-12-05T13:55:43.520Z,6.90
2018-12-05T13:58:11.761Z,6.30
2018-12-05T14:00:39.982Z,6.07
2018-12-05T14:03:08.220Z,9.73
2018-12-05T14:05:36.405Z,13.90
2018-12-05T14:08:04.584Z,13.17
2018-12-05T14:10:32.849Z,10.50
2018-12-05T14:13:01.015Z,7.07
2018-12-05T14:15:29.223Z,8.40
2018-12-05T14:18:01.300Z,6.83
2018-12-05T14:20:27.580Z,6.07
2018-12-05T14:22:55.737Z,6.00
2018-12-05T14:25:23.924Z,6.50
2018-12-05T14:27:52.138Z,6.07
2018-12-05T14:30:20.345Z,4.57
2018-12-05T14:32:48.545Z,5.10
2018-12-05T14:35:16.733Z,8.00
2018-12-05T14:37:44.913Z,7.93
2018-12-05T14:40:13.106Z,6.43
2018-12-05T14:42:41.318Z,6.47
2018-12-05T14:45:09.277Z,5.53
2018-12-05T14:47:37.496Z,5.90
2018-12-05T14:50:12.092Z,5.77
2018-12-05T14:52:40.322Z,6.20
2018-12-05T14:55:08.567Z,5.43
2018-12-05T14:57:36.774Z,6.93
2018-12-05T15:00:05.685Z,7.57
2018-12-05T15:02:33.988Z,6.50
2018-12-05T15:05:02.211Z,6.70
2018-12-05T15:07:30.422Z,7.50
2018-12-05T15:09:58.603Z,6.57
2018-12-05T15:12:26.805Z,6.60
2018-12-05T15:14:55.122Z,7.73
2018-12-05T15:17:23.322Z,8.97
2018-12-05T15:19:51.533Z,8.60
2018-12-05T15:22:19.729Z,10.37
2018-12-05T15:24:49.921Z,10.17
2018-12-05T15:27:18.091Z,9.97
2018-12-05T15:29:46.264Z,9.90
2018-12-05T15:32:14.453Z,12.73
2018-12-05T15:34:42.750Z,12.50
2018-12-05T15:37:10.975Z,12.37
2018-12-05T15:39:39.167Z,10.90
2018-12-05T15:42:07.411Z,9.20
2018-12-05T15:44:35.634Z,9.60
2018-12-05T15:47:03.850Z,15.87
2018-12-05T15:49:32.073Z,13.27
2018-12-05T15:52:00.357Z,12.87
2018-12-05T15:54:28.537Z,14.30
2018-12-05T15:56:56.774Z,15.53
2018-12-05T15:59:24.977Z,23.90
2018-12-05T16:01:53.274Z,28.27
2018-12-05T16:04:21.506Z,25.60
2018-12-05T16:06:49.757Z,24.90
2018-12-05T16:09:18.054Z,17.60
2018-12-05T16:11:46.288Z,14.73
2018-12-05T16:14:21.290Z,12.37
2018-12-05T16:16:49.584Z,14.27
2018-12-05T16:19:24.421Z,20.17
2018-12-05T16:21:52.617Z,12.00
2018-12-05T16:24:20.812Z,31.93
2018-12-05T16:26:49.002Z,42.77
2018-12-05T16:29:17.200Z,29.17
2018-12-05T16:31:45.401Z,50.27
2018-12-05T16:34:13.707Z,25.80
2018-12-05T16:36:41.885Z,16.73
2018-12-05T16:39:10.101Z,18.43
2018-12-05T16:41:38.703Z,19.80
2018-12-05T16:44:12.808Z,16.43
2018-12-05T16:46:37.194Z,15.60
2018-12-05T16:49:05.390Z,14.60
2018-12-05T16:51:33.657Z,14.03
2018-12-05T16:54:01.986Z,13.30
2018-12-05T16:56:30.169Z,13.83
2018-12-05T16:58:58.359Z,13.20
2018-12-05T17:01:26.551Z,13.93
2018-12-05T17:03:54.754Z,13.87
2018-12-05T17:06:22.937Z,14.57
2018-12-05T17:08:51.176Z,15.27
2018-12-05T17:11:19.369Z,15.70
2018-12-05T17:13:47.569Z,15.73
2018-12-05T17:16:18.099Z,18.80
2018-12-05T17:18:46.095Z,16.27
2018-12-05T17:21:14.308Z,15.23
2018-12-05T17:23:42.540Z,17.33
2018-12-05T17:26:10.730Z,17.33
2018-12-05T17:28:38.942Z,17.13
2018-12-05T17:31:07.122Z,20.93
2018-12-05T17:33:35.324Z,17.97
2018-12-05T17:36:03.513Z,18.30
2018-12-05T17:38:31.832Z,16.93
2018-12-05T17:41:00.033Z,16.30
2018-12-05T17:43:28.239Z,15.47
2018-12-05T17:45:56.442Z,14.00
2018-12-05T17:48:24.668Z,12.33
2018-12-05T17:50:52.894Z,13.30
2018-12-05T17:53:21.093Z,11.90
2018-12-05T17:55:49.284Z,12.03
2018-12-05T17:58:17.502Z,11.40
2018-12-05T18:00:45.680Z,12.50
2018-12-05T18:03:13.917Z,10.90
2018-12-05T18:05:42.219Z,11.43
2018-12-05T18:08:10.161Z,13.83
2018-12-05T18:10:38.456Z,15.73
2018-12-05T18:13:06.654Z,15.23
2018-12-05T18:15:34.912Z,13.30
2018-12-05T18:18:03.111Z,15.10
2018-12-05T18:20:31.378Z,15.83
2018-12-05T18:22:59.581Z,14.57
2018-12-05T18:25:27.997Z,13.93
2018-12-05T18:27:56.176Z,14.00
2018-12-05T18:30:24.373Z,13.80
2018-12-05T18:32:52.569Z,15.13
2018-12-05T18:35:20.770Z,14.40
2018-12-05T18:37:49.006Z,23.27
2018-12-05T18:40:17.201Z,12.10
2018-12-05T18:42:45.432Z,11.13
2018-12-05T18:45:13.625Z,12.33
2018-12-05T18:47:41.912Z,12.70
2018-12-05T18:50:10.147Z,12.77
2018-12-05T18:52:38.454Z,12.10
2018-12-05T18:55:06.683Z,12.17
2018-12-05T18:57:34.862Z,11.93
2018-12-05T19:00:03.078Z,13.23
2018-12-05T19:02:31.299Z,13.30
2018-12-05T19:04:59.521Z,12.43
2018-12-05T19:07:27.725Z,12.50
2018-12-05T19:09:55.955Z,13.37
2018-12-05T19:12:23.935Z,13.73
2018-12-05T19:14:52.147Z,13.63
2018-12-05T19:17:20.376Z,12.77
2018-12-05T19:19:48.577Z,12.43
2018-12-05T19:22:16.825Z,12.10
2018-12-05T19:24:45.025Z,11.77
2018-12-05T19:27:13.314Z,13.00
2018-12-05T19:29:41.535Z,14.17
2018-12-05T19:32:09.721Z,13.70
2018-12-05T19:34:37.985Z,14.77
2018-12-05T19:37:06.219Z,13.60
2018-12-05T19:39:34.400Z,16.23
2018-12-05T19:42:02.633Z,16.20
2018-12-05T19:44:30.833Z,15.67
2018-12-05T19:46:59.016Z,16.00
2018-12-05T19:49:27.216Z,18.30
2018-12-05T19:51:55.507Z,15.63
2018-12-05T19:54:23.722Z,22.47
2018-12-05T19:56:51.967Z,28.27
2018-12-05T19:59:20.164Z,17.70
2018-12-05T20:01:48.437Z,18.03
2018-12-05T20:04:16.621Z,16.90
2018-12-05T20:06:44.840Z,16.87
2018-12-05T20:09:13.148Z,17.53
2018-12-05T20:11:41.332Z,18.03
2018-12-05T20:14:11.876Z,17.37
2018-12-05T20:16:40.038Z,25.10
2018-12-05T20:19:08.313Z,22.70
2018-12-05T20:21:36.496Z,18.27
2018-12-05T20:24:04.803Z,16.97
2018-12-05T20:26:32.975Z,16.70
2018-12-05T20:29:01.163Z,16.23
2018-12-05T20:31:29.353Z,18.53
2018-12-05T20:33:57.579Z,26.47
2018-12-05T20:36:25.807Z,26.20
2018-12-05T20:38:53.985Z,22.60
2018-12-05T20:41:22.313Z,18.87
2018-12-05T20:43:50.554Z,17.87
2018-12-05T20:46:18.729Z,20.87
2018-12-05T20:48:47.002Z,22.40
2018-12-05T20:51:15.192Z,25.43
2018-12-05T20:53:43.443Z,23.70
2018-12-05T20:56:11.638Z,17.43
2018-12-05T20:58:39.842Z,16.43
2018-12-05T21:01:08.054Z,17.63
2018-12-05T21:03:36.245Z,17.20
2018-12-05T21:06:04.440Z,19.77
2018-12-05T21:08:32.730Z,20.07
2018-12-05T21:11:00.922Z,19.40
2018-12-05T21:13:29.187Z,19.50
2018-12-05T21:15:57.380Z,19.83
2018-12-05T21:18:25.601Z,16.30
2018-12-05T21:20:53.785Z,16.60
2018-12-05T21:23:22.000Z,16.20
2018-12-05T21:25:50.320Z,16.37
2018-12-05T21:28:18.490Z,15.77
2018-12-05T21:30:46.676Z,15.63
2018-12-05T21:33:15.095Z,16.67
2018-12-05T21:35:43.298Z,15.07
2018-12-05T21:38:11.627Z,14.97
2018-12-05T21:40:39.891Z,15.30
2018-12-05T21:43:08.099Z,15.40
2018-12-05T21:45:36.295Z,16.93
2018-12-05T21:48:04.601Z,16.20
2018-12-05T21:50:32.789Z,13.93
2018-12-05T21:53:00.999Z,34.97
2018-12-05T21:55:29.279Z,31.70
2018-12-05T21:57:57.751Z,28.07
2018-12-05T22:00:26.078Z,19.80
2018-12-05T22:02:54.018Z,16.60
2018-12-05T22:05:22.211Z,18.97
2018-12-05T22:07:50.410Z,24.40
2018-12-05T22:10:18.663Z,18.20
2018-12-05T22:12:46.856Z,19.40
2018-12-05T22:15:15.044Z,19.97
2018-12-05T22:17:43.292Z,20.60
2018-12-05T22:20:11.480Z,17.87
2018-12-05T22:22:39.727Z,19.40
2018-12-05T22:25:07.908Z,18.93
2018-12-05T22:27:36.211Z,19.70
2018-12-05T22:30:04.864Z,18.60
2018-12-05T22:32:33.184Z,17.40
2018-12-05T22:35:01.403Z,16.27
2018-12-05T22:37:29.597Z,16.77
2018-12-05T22:39:57.826Z,15.93
2018-12-05T22:42:26.108Z,18.30
2018-12-05T22:44:54.359Z,22.60
2018-12-05T22:47:22.603Z,21.60
2018-12-05T22:49:50.798Z,18.93
2018-12-05T22:52:19.055Z,17.07
2018-12-05T22:54:47.278Z,16.93
2018-12-05T22:57:15.475Z,17.50
2018-12-05T22:59:43.669Z,17.03
2018-12-05T23:02:12.010Z,19.50
2018-12-05T23:04:40.201Z,17.83
2018-12-05T23:07:08.488Z,17.27
2018-12-05T23:09:43.514Z,19.57
2018-12-05T23:12:11.806Z,19.40
2018-12-05T23:14:40.089Z,17.50
2018-12-05T23:17:08.277Z,17.60
2018-12-05T23:19:36.470Z,16.43
2018-12-05T23:22:04.669Z,15.67
2018-12-05T23:24:32.881Z,14.87
2018-12-05T23:27:01.111Z,15.97
2018-12-05T23:32:04.096Z,14.97
2018-12-05T23:34:32.285Z,13.93
2018-12-05T23:37:00.515Z,13.37
2018-12-05T23:39:28.694Z,12.47
2018-12-05T23:41:56.906Z,13.17
2018-12-05T23:44:25.123Z,14.93
2018-12-05T23:46:53.314Z,13.47
2018-12-05T23:49:21.501Z,14.23
2018-12-05T23:51:49.753Z,15.17
2018-12-05T23:54:17.940Z,14.30
2018-12-05T23:56:46.161Z,12.30
2018-12-05T23:59:14.518Z,13.73
